Belfast Harbour, United Kingdom

10:15 PM GMT on February 14, 2016 (GMT +0000)
CREGAGH/RAVENHILL | | Change Station
CLOSE
Current Station
Personal Weather Station
Location: Belfast,
Elevation: 30 ft
Nearby Weather Stations

Elev 30 ft 54.58 °N, 5.91 °W | Updated 8 seconds ago

Scattered Clouds
Scattered Clouds
41.4 °F
Feels Like 41 °F
N
0.4
Wind Variable Wind from NNE
Gusts 2.5 mph

Today
High -- | Low -- °F
--% Chance of Precip.
Yesterday
High -- | Low -- °F
Precip. -- in
Pressure 30.06 in
Visibility 6.2 miles
Clouds Scattered Clouds 3600 ft
Windchill 41 °F
Dew Point 28 °F
Humidity 59%
Rainfall 0.00 in
Snow Depth Not available.
7:48 AM 5:27 PM
Waxing Crescent, 46% visible
METAR EGAC 142150Z 02014KT 9999 SCT036 04/M01 Q1018
Pressure 30.06 in
Visibility 6.2 miles
Clouds Scattered Clouds 3600 ft
Windchill 41 °F
Dew Point 28 °F
Humidity 59%
Rainfall 0.00 in
Snow Depth Not available.
7:48 AM 5:27 PM
Waxing Crescent, 46% visible
METAR EGAC 142150Z 02014KT 9999 SCT036 04/M01 Q1018

10-Day Weather Forecast

Almanac

Astronomy

Feb. 14, 2016 Rise Set
Actual Time
Civil Twilight
Nautical Twilight
Astronomical Twilight
Moon
Length of Visible Light
Length of Day
Tomorrow will be .
, % of the Moon is Illuminated

Today's Extremes

Country Highs Country Lows

Community

WunderPhotos

Upload Photos

1,892,893 photos uploaded!

WunderBlog® & News

Nearby

Air Quality

  Air Quality AQ Index Pollutant
Not available.

Snow Depth

Station Depth Elevation

Earthquake Activity

City Distance Mag. Time & Date
Minimum magnitude displayed is 2.5.

Coastal Water Temperatures

Place Temperature

Stations

Nearby Weather Stations

Station Location Temp. Windchill Dew Point Humidity Wind Precip. Elev Updated Type